Time;durP1;ratioP1;P1;durP2;ratioP2;P2;SDS_P1;SDS_P2;PMS_P1;PMS_P2;Temp;Humidity;BMP_temperature;BMP_pressure;BME280_temperature;BME280_humidity;BME280_pressure;Samples;Min_cycle;Max_cycle;Signal;HPM_P1;HPM_P2
2024/01/23 00:01:31;;;;;;;;;;;14.90;63.10;;;;;;6276967;22;19903;-70
2024/01/23 00:03:56;;;;;;;;;;;14.90;63.40;;;;;;6276801;22;19981;-70
2024/01/23 00:06:22;;;;;;;;;;;14.80;63.60;;;;;;6276911;22;19907;-70
2024/01/23 00:08:48;;;;;;;;;;;14.80;63.80;;;;;;6277012;22;19903;-70
2024/01/23 00:11:13;;;;;;;;;;;14.80;63.40;;;;;;6278072;22;19904;-69
2024/01/23 00:13:41;;;;;;;;;;;14.80;63.20;;;;;;6277547;22;19910;-70
2024/01/23 00:16:07;;;;;;;;;;;15.00;63.40;;;;;;6277316;22;19910;-70
2024/01/23 00:18:33;;;;;;;;;;;14.80;63.50;;;;;;6277370;22;19907;-70
2024/01/23 00:21:00;;;;;;;;;;;14.80;63.40;;;;;;6277372;22;20002;-69
2024/01/23 00:23:26;;;;;;;;;;;14.80;63.10;;;;;;6277390;22;19907;-70
2024/01/23 00:25:53;;;;;;;;;;;14.80;63.40;;;;;;6277108;22;20345;-70
2024/01/23 00:28:19;;;;;;;;;;;14.70;63.60;;;;;;6276986;22;19910;-70
2024/01/23 00:30:45;;;;;;;;;;;14.70;63.30;;;;;;6277364;22;19938;-70
2024/01/23 00:33:11;;;;;;;;;;;14.80;63.00;;;;;;6277256;22;20230;-70
2024/01/23 00:35:37;;;;;;;;;;;14.60;63.20;;;;;;6276967;22;19904;-70
2024/01/23 00:38:03;;;;;;;;;;;14.70;63.30;;;;;;6276912;22;20361;-70
2024/01/23 00:40:29;;;;;;;;;;;14.80;63.40;;;;;;6277749;22;19953;-69
2024/01/23 00:42:55;;;;;;;;;;;14.70;63.40;;;;;;6277281;22;19942;-70
2024/01/23 00:45:20;;;;;;;;;;;14.80;63.50;;;;;;6276736;22;19903;-70
2024/01/23 00:47:46;;;;;;;;;;;14.70;63.60;;;;;;6277193;22;19903;-70
2024/01/23 00:50:13;;;;;;;;;;;14.80;63.60;;;;;;6276743;22;19908;-70
2024/01/23 00:52:39;;;;;;;;;;;14.70;63.30;;;;;;6277234;22;19925;-70
2024/01/23 00:55:05;;;;;;;;;;;14.70;63.50;;;;;;6276926;22;20323;-70
2024/01/23 00:57:32;;;;;;;;;;;14.70;62.10;;;;;;6277075;22;19957;-70
2024/01/23 00:59:58;;;;;;;;;;;14.70;63.60;;;;;;6276555;22;19965;-70
2024/01/23 01:02:24;;;;;;;;;;;14.70;63.20;;;;;;6276734;22;19904;-70
2024/01/23 01:04:49;;;;;;;;;;;14.80;63.40;;;;;;6286644;22;19939;-69
2024/01/23 01:07:15;;;;;;;;;;;14.60;63.30;;;;;;6276659;22;19938;-70
2024/01/23 01:09:41;;;;;;;;;;;14.70;63.60;;;;;;6277547;22;20386;-70
2024/01/23 01:12:07;;;;;;;;;;;14.60;63.50;;;;;;6276623;22;19903;-70
2024/01/23 01:14:34;;;;;;;;;;;14.70;63.50;;;;;;6276452;22;19904;-69
2024/01/23 01:17:00;;;;;;;;;;;14.70;63.40;;;;;;6276779;22;19903;-70
2024/01/23 01:19:26;;;;;;;;;;;14.70;63.70;;;;;;6276468;22;20352;-70
2024/01/23 01:21:52;;;;;;;;;;;14.90;63.90;;;;;;6276876;22;19954;-70
2024/01/23 01:24:18;;;;;;;;;;;14.70;63.60;;;;;;6276331;22;20342;-70
2024/01/23 01:26:44;;;;;;;;;;;14.80;63.90;;;;;;6276867;22;19903;-70
2024/01/23 01:29:09;;;;;;;;;;;14.60;63.60;;;;;;6276383;22;19903;-70
2024/01/23 01:31:35;;;;;;;;;;;14.90;64.20;;;;;;6276233;22;19939;-70
2024/01/23 01:34:02;;;;;;;;;;;14.60;63.60;;;;;;6276422;22;19910;-70
2024/01/23 01:36:28;;;;;;;;;;;14.60;63.60;;;;;;6276865;22;19926;-70
2024/01/23 01:38:56;;;;;;;;;;;14.60;63.60;;;;;;6276278;22;19908;-70
2024/01/23 01:41:22;;;;;;;;;;;14.40;63.30;;;;;;6276150;22;19907;-69
2024/01/23 01:43:48;;;;;;;;;;;14.80;63.60;;;;;;6276259;22;19903;-70
2024/01/23 01:46:20;;;;;;;;;;;14.60;63.90;;;;;;6276312;22;19911;-70
2024/01/23 01:48:47;;;;;;;;;;;14.60;63.20;;;;;;6276757;22;19931;-70
2024/01/23 01:51:14;;;;;;;;;;;14.60;63.80;;;;;;6276557;22;19979;-69
2024/01/23 01:53:41;;;;;;;;;;;14.50;63.50;;;;;;6276545;22;19904;-70
2024/01/23 01:56:07;;;;;;;;;;;14.60;63.70;;;;;;6276500;22;19975;-70
2024/01/23 01:58:33;;;;;;;;;;;14.60;64.00;;;;;;6276414;22;20156;-70
2024/01/23 02:01:00;;;;;;;;;;;14.60;63.60;;;;;;6276130;22;20346;-70
2024/01/23 02:03:29;;;;;;;;;;;14.60;63.20;;;;;;6276021;22;19915;-70
2024/01/23 02:05:56;;;;;;;;;;;14.50;63.50;;;;;;6276517;22;20230;-70
2024/01/23 02:08:22;;;;;;;;;;;14.60;63.70;;;;;;6276017;22;19907;-70
2024/01/23 02:10:48;;;;;;;;;;;14.50;63.40;;;;;;6276368;22;19910;-70
2024/01/23 02:13:14;;;;;;;;;;;14.50;63.30;;;;;;6276449;22;19903;-70
2024/01/23 02:15:40;;;;;;;;;;;14.50;63.20;;;;;;6276425;22;20289;-70
2024/01/23 02:18:06;;;;;;;;;;;14.50;62.90;;;;;;6276511;22;19903;-70
2024/01/23 02:20:32;;;;;;;;;;;14.50;63.30;;;;;;6276229;22;20322;-69
2024/01/23 02:22:58;;;;;;;;;;;14.60;63.10;;;;;;6276310;22;19903;-70
2024/01/23 02:25:24;;;;;;;;;;;14.50;63.10;;;;;;6276254;22;19910;-70
2024/01/23 02:27:50;;;;;;;;;;;14.70;63.20;;;;;;6276318;22;19907;-70
2024/01/23 02:30:16;;;;;;;;;;;14.50;63.50;;;;;;6276312;22;19903;-70
2024/01/23 02:32:45;;;;;;;;;;;14.50;63.40;;;;;;6276232;22;19907;-70
2024/01/23 02:35:13;;;;;;;;;;;14.50;63.60;;;;;;6276277;22;19903;-70
2024/01/23 02:37:39;;;;;;;;;;;14.40;63.40;;;;;;6276172;22;19903;-70
2024/01/23 02:40:05;;;;;;;;;;;14.40;63.30;;;;;;6275721;22;19921;-69
2024/01/23 02:42:32;;;;;;;;;;;14.40;61.60;;;;;;6276183;22;20223;-69
2024/01/23 02:44:58;;;;;;;;;;;14.50;63.70;;;;;;6275874;22;19904;-70
2024/01/23 02:47:24;;;;;;;;;;;14.40;63.90;;;;;;6276303;22;19990;-69
2024/01/23 02:49:50;;;;;;;;;;;14.40;63.70;;;;;;6275772;22;19935;-69
2024/01/23 02:52:16;;;;;;;;;;;14.40;63.70;;;;;;6275872;22;20346;-69
2024/01/23 02:54:43;;;;;;;;;;;14.50;63.90;;;;;;6276100;22;19907;-69
2024/01/23 02:57:09;;;;;;;;;;;14.50;64.10;;;;;;6276013;22;20269;-69
2024/01/23 02:59:35;;;;;;;;;;;14.50;63.60;;;;;;6276017;22;19957;-69
2024/01/23 03:02:00;;;;;;;;;;;14.40;63.40;;;;;;6276300;22;19911;-69
2024/01/23 03:04:26;;;;;;;;;;;14.40;63.90;;;;;;6275645;22;19994;-69
2024/01/23 03:06:52;;;;;;;;;;;14.40;63.80;;;;;;6276086;22;19907;-70
2024/01/23 03:09:18;;;;;;;;;;;14.50;64.00;;;;;;6276174;22;19903;-70
2024/01/23 03:11:44;;;;;;;;;;;14.30;63.80;;;;;;6276065;22;19904;-69
2024/01/23 03:14:11;;;;;;;;;;;14.50;64.10;;;;;;6275804;22;19974;-70
2024/01/23 03:16:37;;;;;;;;;;;14.50;64.00;;;;;;6276349;22;19926;-70
2024/01/23 03:19:03;;;;;;;;;;;14.20;63.80;;;;;;6277981;22;19911;-70
2024/01/23 03:21:29;;;;;;;;;;;14.50;63.80;;;;;;6277732;22;19987;-70
2024/01/23 03:23:58;;;;;;;;;;;14.50;64.00;;;;;;6277916;22;20045;-70
2024/01/23 03:26:23;;;;;;;;;;;14.50;63.80;;;;;;6277867;22;20021;-70
2024/01/23 03:28:49;;;;;;;;;;;14.40;63.60;;;;;;6277945;22;19903;-69
2024/01/23 03:31:15;;;;;;;;;;;14.50;63.60;;;;;;6278411;22;19981;-70
2024/01/23 03:33:42;;;;;;;;;;;14.50;63.70;;;;;;6277519;22;19949;-70
2024/01/23 03:36:08;;;;;;;;;;;14.40;63.70;;;;;;6277932;22;19994;-69
2024/01/23 03:38:34;;;;;;;;;;;14.40;63.30;;;;;;6277963;22;19975;-70
2024/01/23 03:40:59;;;;;;;;;;;14.40;63.50;;;;;;6277724;22;19939;-70
2024/01/23 03:43:25;;;;;;;;;;;14.40;63.70;;;;;;6277939;22;19926;-69
2024/01/23 03:45:51;;;;;;;;;;;14.50;63.50;;;;;;6277124;22;19911;-69
2024/01/23 03:48:18;;;;;;;;;;;14.40;64.00;;;;;;6277088;22;19943;-69
2024/01/23 03:50:44;;;;;;;;;;;14.40;63.70;;;;;;6277222;22;19911;-70
2024/01/23 03:53:09;;;;;;;;;;;14.40;63.80;;;;;;6277118;22;19903;-70
2024/01/23 03:55:35;;;;;;;;;;;14.30;63.20;;;;;;6277069;22;19911;-69
2024/01/23 03:58:00;;;;;;;;;;;14.40;63.60;;;;;;6277086;22;19903;-69
2024/01/23 04:00:28;;;;;;;;;;;14.90;64.00;;;;;;6277538;22;19918;-70
2024/01/23 04:02:54;;;;;;;;;;;14.40;63.40;;;;;;6276743;22;19914;-70
2024/01/23 04:05:20;;;;;;;;;;;14.40;63.80;;;;;;6277068;22;19903;-70
2024/01/23 04:07:47;;;;;;;;;;;14.40;63.60;;;;;;6277012;22;19975;-70
2024/01/23 04:10:13;;;;;;;;;;;14.30;63.40;;;;;;6277068;22;19915;-70
2024/01/23 04:12:38;;;;;;;;;;;15.40;64.40;;;;;;6249819;22;19903;-70
2024/01/23 04:15:05;;;;;;;;;;;14.40;63.70;;;;;;6276853;22;19903;-69
2024/01/23 04:17:30;;;;;;;;;;;14.30;62.40;;;;;;6276872;22;19911;-69
2024/01/23 04:19:56;;;;;;;;;;;14.40;63.70;;;;;;6276661;22;19919;-69
2024/01/23 04:22:22;;;;;;;;;;;14.40;63.40;;;;;;6276983;22;20237;-69
2024/01/23 04:24:48;;;;;;;;;;;14.40;63.70;;;;;;6277026;22;19957;-70
2024/01/23 04:27:15;;;;;;;;;;;14.30;63.70;;;;;;6277836;22;19907;-70
2024/01/23 04:29:41;;;;;;;;;;;14.30;63.60;;;;;;6276944;22;19904;-69
2024/01/23 04:32:07;;;;;;;;;;;14.30;63.40;;;;;;6277236;22;19926;-69
2024/01/23 04:34:33;;;;;;;;;;;14.30;63.50;;;;;;6277325;22;20229;-70
2024/01/23 04:36:59;;;;;;;;;;;14.30;63.80;;;;;;6277295;22;19978;-69
2024/01/23 04:39:24;;;;;;;;;;;14.30;63.60;;;;;;6276926;22;19921;-70
2024/01/23 04:41:50;;;;;;;;;;;14.30;63.80;;;;;;6277027;22;20250;-69
2024/01/23 04:44:16;;;;;;;;;;;14.30;63.80;;;;;;6277249;22;19986;-70
2024/01/23 04:46:42;;;;;;;;;;;14.30;63.70;;;;;;6277254;22;19990;-69
2024/01/23 04:49:08;;;;;;;;;;;14.30;63.70;;;;;;6276748;22;20395;-69
2024/01/23 04:51:34;;;;;;;;;;;14.30;63.70;;;;;;6276872;22;19982;-69
2024/01/23 04:54:00;;;;;;;;;;;14.30;63.80;;;;;;6276567;22;19903;-69
2024/01/23 04:56:25;;;;;;;;;;;14.30;63.50;;;;;;6277009;22;19935;-70
2024/01/23 04:58:51;;;;;;;;;;;14.40;64.10;;;;;;6276451;22;19910;-69
2024/01/23 05:01:17;;;;;;;;;;;14.60;63.50;;;;;;6276256;22;20238;-70
2024/01/23 05:03:43;;;;;;;;;;;14.30;63.50;;;;;;6276607;22;19986;-69
2024/01/23 05:06:08;;;;;;;;;;;14.40;63.90;;;;;;6276451;22;20330;-69
2024/01/23 05:08:34;;;;;;;;;;;14.40;64.10;;;;;;6276436;22;19931;-70
2024/01/23 05:10:59;;;;;;;;;;;14.40;64.00;;;;;;6276413;22;19904;-69
2024/01/23 05:13:25;;;;;;;;;;;14.40;64.30;;;;;;6276619;22;19907;-69
2024/01/23 05:15:51;;;;;;;;;;;14.30;64.30;;;;;;6276932;22;19910;-70
2024/01/23 05:18:17;;;;;;;;;;;14.40;64.10;;;;;;6276935;22;19939;-70
2024/01/23 05:20:43;;;;;;;;;;;14.40;64.00;;;;;;6276810;22;19964;-70
2024/01/23 05:23:09;;;;;;;;;;;14.40;64.90;;;;;;6276791;22;19989;-69
2024/01/23 05:25:35;;;;;;;;;;;14.30;64.00;;;;;;6276991;22;20306;-70
2024/01/23 05:28:01;;;;;;;;;;;14.40;65.00;;;;;;6276842;22;19934;-70
2024/01/23 05:30:27;;;;;;;;;;;14.40;64.20;;;;;;6276651;22;19957;-69
2024/01/23 05:32:53;;;;;;;;;;;14.40;64.10;;;;;;6276885;22;19904;-70
2024/01/23 05:35:18;;;;;;;;;;;14.40;64.10;;;;;;6276167;22;20212;-70
2024/01/23 05:37:44;;;;;;;;;;;14.40;64.20;;;;;;6276115;22;20061;-70
2024/01/23 05:40:11;;;;;;;;;;;14.40;64.40;;;;;;6275589;22;19911;-69
2024/01/23 05:42:37;;;;;;;;;;;14.40;63.60;;;;;;6276968;22;20266;-70
2024/01/23 05:45:03;;;;;;;;;;;14.40;63.90;;;;;;6276207;22;19910;-69
2024/01/23 05:47:29;;;;;;;;;;;14.40;62.80;;;;;;6275964;22;19908;-70
2024/01/23 05:49:54;;;;;;;;;;;14.40;64.00;;;;;;6275984;22;19911;-70
2024/01/23 05:52:23;;;;;;;;;;;14.40;64.10;;;;;;6276461;22;19914;-70
2024/01/23 05:54:49;;;;;;;;;;;14.60;59.70;;;;;;6276008;22;19904;-69
2024/01/23 05:57:15;;;;;;;;;;;14.30;64.00;;;;;;6248760;22;19956;-69
2024/01/23 05:59:41;;;;;;;;;;;14.50;63.90;;;;;;6248636;22;19915;-70
2024/01/23 06:02:06;;;;;;;;;;;14.40;63.50;;;;;;6275835;22;19926;-70
2024/01/23 06:04:32;;;;;;;;;;;14.40;63.70;;;;;;6275994;22;19926;-69
2024/01/23 06:06:58;;;;;;;;;;;14.40;63.80;;;;;;6275928;22;19931;-69
2024/01/23 06:09:24;;;;;;;;;;;14.40;63.80;;;;;;6275795;22;19903;-69
2024/01/23 06:11:49;;;;;;;;;;;14.40;63.70;;;;;;6275853;22;20349;-69
2024/01/23 06:14:15;;;;;;;;;;;14.40;63.60;;;;;;6276498;22;19904;-70
2024/01/23 06:16:40;;;;;;;;;;;14.40;63.90;;;;;;6275729;22;20242;-69
2024/01/23 06:19:09;;;;;;;;;;;14.40;63.80;;;;;;6275625;22;20272;-69
2024/01/23 06:21:35;;;;;;;;;;;14.30;59.10;;;;;;6276302;22;19935;-69
2024/01/23 06:24:01;;;;;;;;;;;14.50;63.70;;;;;;6275967;22;19911;-69
2024/01/23 06:26:27;;;;;;;;;;;14.30;63.10;;;;;;6275826;22;19956;-70
2024/01/23 06:28:52;;;;;;;;;;;14.30;63.40;;;;;;6275693;22;19986;-70
2024/01/23 06:31:25;;;;;;;;;;;14.40;63.40;;;;;;6275699;22;20311;-70
2024/01/23 06:33:50;;;;;;;;;;;14.30;63.40;;;;;;6286072;22;19903;-70
2024/01/23 06:36:16;;;;;;;;;;;14.40;63.30;;;;;;6286020;22;19903;-70
2024/01/23 06:38:42;;;;;;;;;;;14.30;63.10;;;;;;6275805;22;20234;-70
2024/01/23 06:41:07;;;;;;;;;;;14.30;63.30;;;;;;6275571;22;19961;-69
2024/01/23 06:43:33;;;;;;;;;;;14.30;63.20;;;;;;6275638;22;19903;-69
2024/01/23 06:45:59;;;;;;;;;;;14.30;63.10;;;;;;6275994;22;19903;-70
2024/01/23 06:48:25;;;;;;;;;;;14.30;63.30;;;;;;6276119;22;19903;-69
2024/01/23 06:50:51;;;;;;;;;;;14.30;63.20;;;;;;6276377;22;19910;-69
2024/01/23 06:53:17;;;;;;;;;;;14.30;63.30;;;;;;6277860;22;19910;-68
2024/01/23 06:55:43;;;;;;;;;;;14.20;63.20;;;;;;6278068;22;19903;-69
2024/01/23 06:58:09;;;;;;;;;;;14.20;63.20;;;;;;6277831;22;19904;-69
2024/01/23 07:00:35;;;;;;;;;;;14.20;63.70;;;;;;6278094;22;19998;-69
2024/01/23 07:03:01;;;;;;;;;;;14.20;63.40;;;;;;6277716;22;20298;-69
2024/01/23 07:05:27;;;;;;;;;;;14.20;63.60;;;;;;6279435;22;19982;-68
2024/01/23 07:07:53;;;;;;;;;;;14.20;63.20;;;;;;6281655;22;19907;-69
2024/01/23 07:10:19;;;;;;;;;;;14.30;64.20;;;;;;6277345;22;20242;-70
2024/01/23 07:12:45;;;;;;;;;;;14.20;64.00;;;;;;6277593;22;19923;-71
2024/01/23 07:15:11;;;;;;;;;;;14.20;63.90;;;;;;6277944;22;19907;-71
2024/01/23 07:17:37;;;;;;;;;;;14.30;63.80;;;;;;6277945;22;19935;-70
2024/01/23 07:20:03;;;;;;;;;;;14.20;63.50;;;;;;6277792;22;20262;-70
2024/01/23 07:22:28;;;;;;;;;;;14.20;63.10;;;;;;6277394;22;19903;-70
2024/01/23 07:24:53;;;;;;;;;;;14.20;64.00;;;;;;6277279;22;19907;-70
2024/01/23 07:27:20;;;;;;;;;;;14.20;63.80;;;;;;6277257;22;20238;-70
2024/01/23 07:29:45;;;;;;;;;;;14.30;63.60;;;;;;6277398;22;20348;-70
2024/01/23 07:32:11;;;;;;;;;;;14.20;63.50;;;;;;6277168;22;19977;-70
2024/01/23 07:34:36;;;;;;;;;;;14.30;63.60;;;;;;6277221;22;19910;-71
2024/01/23 07:37:02;;;;;;;;;;;14.10;63.60;;;;;;6276924;22;19960;-71
2024/01/23 07:39:28;;;;;;;;;;;14.30;63.10;;;;;;6276856;22;19911;-72
2024/01/23 07:41:54;;;;;;;;;;;14.30;63.60;;;;;;6276951;22;19938;-72
2024/01/23 07:44:19;;;;;;;;;;;14.20;63.70;;;;;;6277077;22;19903;-72
2024/01/23 07:46:47;;;;;;;;;;;14.20;63.50;;;;;;6277525;22;19903;-74
2024/01/23 07:49:13;;;;;;;;;;;14.20;63.30;;;;;;6276915;22;20355;-72
2024/01/23 07:51:45;;;;;;;;;;;13.90;63.60;;;;;;6277003;22;19934;-72
2024/01/23 07:54:11;;;;;;;;;;;14.10;59.00;;;;;;6276869;22;19911;-72
2024/01/23 07:56:36;;;;;;;;;;;14.30;63.50;;;;;;6277627;22;19903;-71
2024/01/23 07:59:02;;;;;;;;;;;14.50;63.30;;;;;;6276941;22;19912;-72
2024/01/23 08:01:27;;;;;;;;;;;14.30;63.10;;;;;;6276823;22;19907;-72
2024/01/23 08:03:53;;;;;;;;;;;14.30;63.50;;;;;;6276113;22;19915;-72
2024/01/23 08:06:19;;;;;;;;;;;14.20;63.40;;;;;;6276820;22;19903;-72
2024/01/23 08:08:44;;;;;;;;;;;14.50;63.50;;;;;;6276872;22;20338;-72
2024/01/23 08:11:13;;;;;;;;;;;14.40;63.50;;;;;;6276756;22;19911;-72
2024/01/23 08:13:38;;;;;;;;;;;14.30;59.00;;;;;;6276939;22;19934;-72
2024/01/23 08:16:07;;;;;;;;;;;14.20;63.50;;;;;;6277289;22;20219;-72
2024/01/23 08:18:33;;;;;;;;;;;14.30;62.00;;;;;;6276699;22;19903;-72
2024/01/23 08:20:58;;;;;;;;;;;14.30;63.40;;;;;;6277268;22;19915;-72
2024/01/23 08:23:24;;;;;;;;;;;14.50;63.40;;;;;;6277188;22;19903;-72
2024/01/23 08:25:49;;;;;;;;;;;14.30;63.40;;;;;;6276708;22;19912;-72
2024/01/23 08:28:15;;;;;;;;;;;12.60;62.40;;;;;;6277371;22;20231;-72
2024/01/23 08:30:41;;;;;;;;;;;14.40;63.10;;;;;;6276768;22;19903;-72
2024/01/23 08:33:07;;;;;;;;;;;14.30;62.90;;;;;;6276549;22;19910;-72
2024/01/23 08:35:32;;;;;;;;;;;14.30;62.80;;;;;;6277280;22;19934;-71
2024/01/23 08:37:58;;;;;;;;;;;14.30;63.20;;;;;;6249536;22;20227;-72
2024/01/23 08:40:23;;;;;;;;;;;14.30;62.80;;;;;;6276404;22;19919;-72
2024/01/23 08:42:49;;;;;;;;;;;14.30;62.90;;;;;;6276499;22;19903;-72
2024/01/23 08:45:14;;;;;;;;;;;14.30;62.80;;;;;;6276897;22;19903;-72
2024/01/23 08:47:40;;;;;;;;;;;14.30;62.50;;;;;;6276375;22;19957;-72
2024/01/23 08:50:05;;;;;;;;;;;14.30;63.10;;;;;;6276358;22;19907;-72
2024/01/23 08:52:31;;;;;;;;;;;14.40;62.00;;;;;;6276372;22;19911;-72
2024/01/23 08:54:56;;;;;;;;;;;14.30;63.10;;;;;;6279279;22;19910;-72
2024/01/23 08:57:23;;;;;;;;;;;14.60;62.70;;;;;;6277084;22;19984;-73
2024/01/23 08:59:49;;;;;;;;;;;14.40;63.20;;;;;;6276256;22;20350;-72
2024/01/23 09:02:14;;;;;;;;;;;14.40;62.70;;;;;;6276230;22;19911;-72
2024/01/23 09:04:40;;;;;;;;;;;14.40;63.20;;;;;;6276339;22;19961;-72
2024/01/23 09:07:06;;;;;;;;;;;14.50;63.20;;;;;;6276736;22;19982;-73
2024/01/23 09:09:32;;;;;;;;;;;14.40;62.90;;;;;;6276419;22;20242;-72
2024/01/23 09:11:58;;;;;;;;;;;14.40;62.80;;;;;;6277114;22;19980;-73
2024/01/23 09:14:23;;;;;;;;;;;14.40;62.80;;;;;;6276054;22;20169;-70
2024/01/23 09:16:49;;;;;;;;;;;14.40;62.80;;;;;;6276807;22;20287;-71
2024/01/23 09:19:15;;;;;;;;;;;14.50;62.80;;;;;;6275952;22;19943;-72
2024/01/23 09:21:40;;;;;;;;;;;14.40;63.60;;;;;;6276150;22;20284;-72
2024/01/23 09:24:06;;;;;;;;;;;14.40;62.80;;;;;;6276124;22;19903;-72
2024/01/23 09:26:31;;;;;;;;;;;14.40;62.40;;;;;;6276033;22;19910;-72
2024/01/23 09:28:57;;;;;;;;;;;14.40;62.70;;;;;;6276614;22;19903;-71
2024/01/23 09:31:24;;;;;;;;;;;14.40;63.10;;;;;;6276476;22;19978;-72
2024/01/23 09:33:50;;;;;;;;;;;14.50;62.80;;;;;;6276686;22;19904;-72
2024/01/23 09:36:16;;;;;;;;;;;14.60;62.80;;;;;;6276544;22;19994;-72
2024/01/23 09:38:42;;;;;;;;;;;14.50;62.60;;;;;;6276430;22;19907;-72
2024/01/23 09:41:11;;;;;;;;;;;14.60;62.90;;;;;;6276520;22;19911;-72
2024/01/23 09:43:38;;;;;;;;;;;14.50;62.90;;;;;;6276410;22;19966;-72
2024/01/23 09:46:04;;;;;;;;;;;14.50;62.80;;;;;;6275881;22;19904;-72
2024/01/23 09:48:30;;;;;;;;;;;14.50;62.60;;;;;;6276003;22;20341;-72
2024/01/23 09:50:57;;;;;;;;;;;14.50;62.40;;;;;;6276499;22;20234;-72
2024/01/23 09:53:25;;;;;;;;;;;14.50;62.70;;;;;;6275874;22;19907;-72
2024/01/23 09:55:51;;;;;;;;;;;14.40;59.90;;;;;;6276159;22;19910;-72
2024/01/23 09:58:18;;;;;;;;;;;14.50;62.60;;;;;;6275797;22;19903;-72
2024/01/23 10:00:43;;;;;;;;;;;14.50;63.00;;;;;;6275589;22;19915;-72
2024/01/23 10:03:10;;;;;;;;;;;14.60;62.60;;;;;;6275984;22;19961;-72
2024/01/23 10:05:36;;;;;;;;;;;14.50;63.10;;;;;;6275612;22;19907;-72
2024/01/23 10:08:01;;;;;;;;;;;14.40;63.40;;;;;;6248689;22;20082;-72
2024/01/23 10:10:29;;;;;;;;;;;14.50;63.30;;;;;;6276209;22;20303;-72
2024/01/23 10:12:54;;;;;;;;;;;14.50;63.40;;;;;;6275647;22;19935;-72
2024/01/23 10:15:22;;;;;;;;;;;14.50;63.40;;;;;;6276241;22;19903;-72
2024/01/23 10:17:47;;;;;;;;;;;14.70;63.60;;;;;;6275564;22;19903;-72
2024/01/23 10:20:13;;;;;;;;;;;14.70;63.50;;;;;;6275539;22;20353;-72
2024/01/23 10:22:39;;;;;;;;;;;14.60;63.40;;;;;;6275626;22;19914;-72
2024/01/23 10:25:09;;;;;;;;;;;14.70;63.40;;;;;;6275522;22;19910;-72
2024/01/23 10:27:35;;;;;;;;;;;14.70;59.10;;;;;;6275549;22;19907;-73
2024/01/23 10:30:01;;;;;;;;;;;14.80;63.50;;;;;;6275985;22;19908;-72
2024/01/23 10:32:28;;;;;;;;;;;14.70;63.70;;;;;;6275391;22;19903;-72
2024/01/23 10:34:54;;;;;;;;;;;14.80;63.70;;;;;;6248294;22;20330;-72
2024/01/23 10:37:20;;;;;;;;;;;14.80;63.10;;;;;;6276037;22;19903;-72
2024/01/23 10:39:45;;;;;;;;;;;14.80;63.30;;;;;;6248381;22;20219;-72
2024/01/23 10:42:12;;;;;;;;;;;14.90;63.90;;;;;;6275425;22;19990;-72
2024/01/23 10:44:38;;;;;;;;;;;14.80;63.90;;;;;;6275649;22;19957;-71
2024/01/23 10:47:04;;;;;;;;;;;14.80;63.70;;;;;;6275324;22;19956;-73
2024/01/23 10:49:29;;;;;;;;;;;14.90;63.80;;;;;;6275472;22;20246;-73
2024/01/23 10:52:02;;;;;;;;;;;15.00;63.60;;;;;;6275669;22;19991;-74
2024/01/23 10:54:30;;;;;;;;;;;15.00;64.00;;;;;;6285794;22;19910;-75
2024/01/23 10:56:57;;;;;;;;;;;14.90;63.80;;;;;;6275789;22;19903;-74
2024/01/23 10:59:29;;;;;;;;;;;14.90;63.80;;;;;;6275876;22;19919;-73
2024/01/23 11:02:15;;;;;;;;;;;15.00;63.40;;;;;;6282326;22;20266;-73
2024/01/23 11:04:41;;;;;;;;;;;15.00;64.00;;;;;;6274490;22;19968;-74
2024/01/23 11:07:16;;;;;;;;;;;15.00;63.70;;;;;;6276496;22;19946;-74
2024/01/23 11:09:50;;;;;;;;;;;15.00;59.50;;;;;;6285946;22;20254;-73
2024/01/23 11:12:22;;;;;;;;;;;15.10;59.60;;;;;;6275268;22;20311;-73
2024/01/23 11:14:51;;;;;;;;;;;15.00;64.20;;;;;;6285963;22;19903;-71
2024/01/23 11:17:17;;;;;;;;;;;15.00;64.20;;;;;;6275634;22;19904;-72
2024/01/23 11:19:46;;;;;;;;;;;15.10;64.30;;;;;;6275133;22;19922;-72
2024/01/23 11:22:12;;;;;;;;;;;15.10;59.80;;;;;;6275032;22;20049;-72
2024/01/23 11:24:38;;;;;;;;;;;15.10;64.00;;;;;;6275035;22;20242;-72
2024/01/23 11:27:05;;;;;;;;;;;15.10;64.40;;;;;;6274399;22;19907;-72
2024/01/23 11:29:30;;;;;;;;;;;15.10;63.80;;;;;;6275178;22;19903;-72
2024/01/23 11:31:56;;;;;;;;;;;15.30;63.80;;;;;;6275096;22;19903;-72
2024/01/23 11:34:25;;;;;;;;;;;15.20;63.60;;;;;;6275826;22;19908;-72
2024/01/23 11:36:51;;;;;;;;;;;15.40;59.00;;;;;;6275126;22;19911;-72
2024/01/23 11:39:19;;;;;;;;;;;15.40;63.20;;;;;;6275908;22;19914;-72
2024/01/23 11:41:48;;;;;;;;;;;15.50;63.10;;;;;;6276955;22;20408;-72
2024/01/23 11:44:15;;;;;;;;;;;15.50;58.40;;;;;;6277161;22;19907;-72
2024/01/23 11:46:41;;;;;;;;;;;15.60;63.10;;;;;;6277137;22;19939;-72
2024/01/23 11:49:06;;;;;;;;;;;15.60;63.20;;;;;;6276937;22;19911;-72
2024/01/23 11:51:35;;;;;;;;;;;15.60;62.90;;;;;;6249770;22;20242;-72
2024/01/23 11:54:02;;;;;;;;;;;15.60;62.80;;;;;;6276830;22;19978;-72
2024/01/23 11:56:28;;;;;;;;;;;15.60;63.00;;;;;;6276979;22;19903;-72
2024/01/23 11:58:55;;;;;;;;;;;15.70;63.10;;;;;;6276669;22;19910;-72
2024/01/23 12:01:22;;;;;;;;;;;15.60;63.00;;;;;;6276697;22;19907;-72
2024/01/23 12:03:48;;;;;;;;;;;15.60;63.40;;;;;;6277177;22;20200;-72
2024/01/23 12:06:14;;;;;;;;;;;15.70;63.40;;;;;;6276716;22;19949;-72
2024/01/23 12:08:41;;;;;;;;;;;15.60;63.50;;;;;;6276882;22;20184;-72
2024/01/23 12:11:06;;;;;;;;;;;15.70;63.60;;;;;;6276633;22;19903;-72
2024/01/23 12:13:32;;;;;;;;;;;15.60;63.40;;;;;;6276871;22;19914;-72
2024/01/23 12:15:57;;;;;;;;;;;15.70;63.30;;;;;;6276779;22;19935;-72
2024/01/23 12:18:23;;;;;;;;;;;15.70;63.40;;;;;;6276649;22;19903;-72
2024/01/23 12:20:50;;;;;;;;;;;15.70;63.50;;;;;;6277084;22;19915;-72
2024/01/23 12:23:17;;;;;;;;;;;15.70;63.40;;;;;;6277127;22;19903;-72
2024/01/23 12:25:43;;;;;;;;;;;16.00;63.60;;;;;;6277221;22;19954;-72
2024/01/23 12:28:09;;;;;;;;;;;15.70;63.60;;;;;;6277094;22;19910;-72
2024/01/23 12:30:35;;;;;;;;;;;15.70;63.60;;;;;;6276730;22;20365;-72
2024/01/23 12:33:01;;;;;;;;;;;15.70;63.40;;;;;;6277616;22;19956;-72
2024/01/23 12:35:27;;;;;;;;;;;15.70;63.50;;;;;;6277089;22;19978;-72
2024/01/23 12:37:54;;;;;;;;;;;15.70;63.50;;;;;;6277024;22;19903;-72
2024/01/23 12:40:21;;;;;;;;;;;15.60;63.60;;;;;;6276896;22;19955;-72
2024/01/23 12:42:47;;;;;;;;;;;15.60;63.80;;;;;;6276977;22;19949;-73
2024/01/23 12:45:18;;;;;;;;;;;15.60;63.70;;;;;;6276753;22;20341;-72
2024/01/23 12:47:45;;;;;;;;;;;15.60;59.40;;;;;;6276510;22;19904;-72
2024/01/23 12:50:15;;;;;;;;;;;15.60;64.00;;;;;;6276365;22;19904;-72
2024/01/23 12:52:41;;;;;;;;;;;15.60;59.40;;;;;;6276520;22;19907;-72
2024/01/23 12:55:07;;;;;;;;;;;15.60;63.90;;;;;;6276378;22;19957;-72
2024/01/23 12:57:33;;;;;;;;;;;15.60;61.40;;;;;;6276355;22;19904;-72
2024/01/23 12:59:59;;;;;;;;;;;15.40;63.70;;;;;;6277348;22;20018;-72
2024/01/23 13:02:25;;;;;;;;;;;15.50;63.60;;;;;;6276196;22;19962;-72
2024/01/23 13:04:51;;;;;;;;;;;15.60;64.10;;;;;;6286836;22;19903;-72
2024/01/23 13:07:17;;;;;;;;;;;15.60;64.00;;;;;;6276110;22;19903;-72
2024/01/23 13:09:43;;;;;;;;;;;15.50;63.90;;;;;;6276795;22;19903;-72
2024/01/23 13:12:09;;;;;;;;;;;15.50;63.90;;;;;;6276195;22;19986;-72
2024/01/23 13:14:36;;;;;;;;;;;15.50;64.00;;;;;;6276292;22;20055;-72
2024/01/23 13:17:02;;;;;;;;;;;15.60;64.00;;;;;;6276148;22;19953;-72
2024/01/23 13:19:28;;;;;;;;;;;15.50;64.20;;;;;;6276482;22;19912;-72
2024/01/23 13:21:54;;;;;;;;;;;15.60;64.20;;;;;;6276301;22;19903;-72
2024/01/23 13:24:20;;;;;;;;;;;15.50;63.90;;;;;;6276642;22;19969;-72
2024/01/23 13:26:46;;;;;;;;;;;15.50;64.10;;;;;;6276192;22;20311;-72
2024/01/23 13:29:12;;;;;;;;;;;15.50;64.00;;;;;;6277125;22;19907;-72
2024/01/23 13:31:40;;;;;;;;;;;15.50;63.80;;;;;;6276203;22;19994;-72
2024/01/23 13:34:07;;;;;;;;;;;15.50;63.90;;;;;;6275981;22;19909;-72
2024/01/23 13:36:33;;;;;;;;;;;15.50;64.10;;;;;;6276521;22;19982;-71
2024/01/23 13:38:59;;;;;;;;;;;15.50;63.80;;;;;;6275926;22;19954;-72
2024/01/23 13:41:24;;;;;;;;;;;15.50;64.00;;;;;;6275924;22;20239;-72
2024/01/23 13:43:50;;;;;;;;;;;15.50;63.70;;;;;;6276280;22;20273;-72
2024/01/23 13:46:16;;;;;;;;;;;15.40;63.70;;;;;;6276114;22;20325;-72
2024/01/23 13:48:49;;;;;;;;;;;15.50;63.90;;;;;;6276636;22;19974;-72
2024/01/23 13:51:15;;;;;;;;;;;15.50;64.00;;;;;;6286470;22;19903;-72
2024/01/23 13:53:41;;;;;;;;;;;15.80;64.10;;;;;;6286046;22;20211;-72
2024/01/23 13:56:06;;;;;;;;;;;15.40;64.00;;;;;;6286168;22;19910;-72
2024/01/23 13:58:32;;;;;;;;;;;15.50;64.00;;;;;;6286560;22;19953;-72
2024/01/23 14:00:58;;;;;;;;;;;15.50;63.80;;;;;;6285603;22;19911;-72
2024/01/23 14:03:23;;;;;;;;;;;15.50;63.60;;;;;;6285407;22;19915;-72
2024/01/23 14:05:49;;;;;;;;;;;15.60;64.10;;;;;;6285895;22;19914;-72
2024/01/23 14:08:15;;;;;;;;;;;15.50;63.80;;;;;;6286014;22;19903;-72
2024/01/23 14:10:41;;;;;;;;;;;15.50;64.00;;;;;;6286027;22;19907;-72